createdAt,value
2018-12-10T00:01:09.720Z,91.40
2018-12-10T00:03:39.598Z,91.60
2018-12-10T00:06:08.689Z,91.70
2018-12-10T00:08:37.903Z,92.00
2018-12-10T00:11:07.079Z,91.90
2018-12-10T00:13:36.325Z,91.80
2018-12-10T00:16:05.549Z,92.00
2018-12-10T00:18:34.759Z,92.20
2018-12-10T00:21:04.098Z,92.30
2018-12-10T00:23:34.057Z,92.20
2018-12-10T00:26:03.392Z,92.30
2018-12-10T00:28:32.852Z,92.40
2018-12-10T00:31:02.571Z,92.10
2018-12-10T00:33:31.813Z,92.20
2018-12-10T00:36:01.772Z,92.60
2018-12-10T00:38:31.095Z,92.80
2018-12-10T00:41:00.264Z,92.90
2018-12-10T00:43:29.421Z,92.80
2018-12-10T00:45:58.646Z,92.90
2018-12-10T00:48:28.284Z,93.30
2018-12-10T00:50:57.803Z,92.70
2018-12-10T00:53:27.103Z,93.10
2018-12-10T00:55:57.015Z,93.20
2018-12-10T00:58:26.366Z,92.90
2018-12-10T01:00:56.061Z,93.00
2018-12-10T01:03:25.300Z,93.20
2018-12-10T01:05:54.783Z,93.00
2018-12-10T01:08:25.028Z,92.60
2018-12-10T01:10:54.254Z,92.40
2018-12-10T01:13:23.408Z,92.20
2018-12-10T01:15:53.317Z,91.50
2018-12-10T01:18:22.544Z,90.90
2018-12-10T01:20:51.678Z,90.60
2018-12-10T01:23:20.799Z,90.60
2018-12-10T01:25:50.662Z,90.80
2018-12-10T01:28:19.878Z,90.70
2018-12-10T01:30:48.962Z,90.50
2018-12-10T01:33:18.839Z,90.70
2018-12-10T01:35:48.865Z,90.70
2018-12-10T01:38:18.048Z,90.70
2018-12-10T01:40:47.476Z,90.70
2018-12-10T01:43:16.764Z,90.90
2018-12-10T01:45:46.551Z,90.70
2018-12-10T01:48:16.442Z,90.40
2018-12-10T01:50:45.693Z,89.30
2018-12-10T01:53:14.888Z,87.90
2018-12-10T01:55:50.522Z,86.60
2018-12-10T01:58:19.773Z,87.10
2018-12-10T02:00:49.104Z,87.20
2018-12-10T02:03:18.328Z,87.80
2018-12-10T02:05:48.119Z,88.20
2018-12-10T02:08:17.237Z,88.30
2018-12-10T02:10:46.437Z,88.30
2018-12-10T02:13:15.570Z,88.20
2018-12-10T02:15:44.623Z,87.70
2018-12-10T02:18:13.912Z,87.30
2018-12-10T02:20:43.310Z,87.90
2018-12-10T02:23:12.926Z,88.20
2018-12-10T02:25:42.819Z,88.00
2018-12-10T02:28:12.288Z,88.20
2018-12-10T02:30:41.491Z,88.20
2018-12-10T02:33:11.316Z,89.10
2018-12-10T02:35:40.390Z,88.50
2018-12-10T02:38:09.626Z,88.50
2018-12-10T02:40:38.949Z,88.00
2018-12-10T02:43:08.126Z,88.80
2018-12-10T02:45:38.021Z,89.00
2018-12-10T02:48:07.109Z,89.00
2018-12-10T02:50:37.023Z,89.80
2018-12-10T02:53:05.807Z,90.10
2018-12-10T02:55:35.080Z,89.60
2018-12-10T02:58:04.765Z,89.60
2018-12-10T03:00:34.560Z,89.80
2018-12-10T03:03:03.904Z,89.50
2018-12-10T03:05:33.123Z,89.60
2018-12-10T03:08:02.971Z,89.00
2018-12-10T03:10:32.216Z,87.80
2018-12-10T03:13:02.136Z,86.90
2018-12-10T03:15:31.777Z,85.80
2018-12-10T03:18:01.065Z,86.00
2018-12-10T03:20:30.863Z,87.70
2018-12-10T03:23:00.176Z,88.50
2018-12-10T03:25:29.660Z,89.00
2018-12-10T03:27:58.866Z,89.30
2018-12-10T03:30:28.851Z,89.30
2018-12-10T03:32:58.301Z,89.60
2018-12-10T03:35:29.114Z,89.50
2018-12-10T03:37:58.467Z,90.00
2018-12-10T03:40:28.630Z,90.30
2018-12-10T03:42:58.130Z,90.30
2018-12-10T03:45:28.145Z,90.30
2018-12-10T03:47:57.214Z,90.30
2018-12-10T03:50:26.533Z,90.40
2018-12-10T03:52:56.355Z,90.50
2018-12-10T03:55:25.781Z,90.60
2018-12-10T03:57:54.817Z,90.60
2018-12-10T04:00:23.979Z,90.80
2018-12-10T04:02:53.961Z,90.50
2018-12-10T04:05:23.368Z,90.10
2018-12-10T04:07:52.630Z,90.20
2018-12-10T04:10:22.409Z,90.30
2018-12-10T04:12:52.134Z,90.10
2018-12-10T04:15:21.214Z,90.30
2018-12-10T04:17:50.463Z,90.50
2018-12-10T04:20:20.294Z,90.60
2018-12-10T04:22:50.222Z,90.60
2018-12-10T04:25:19.459Z,90.60
2018-12-10T04:27:49.548Z,90.50
2018-12-10T04:30:18.846Z,90.10
2018-12-10T04:32:48.365Z,90.20
2018-12-10T04:35:18.048Z,90.30
2018-12-10T04:37:47.248Z,90.30
2018-12-10T04:40:16.334Z,90.20
2018-12-10T04:42:45.645Z,90.40
2018-12-10T04:45:14.721Z,90.30
2018-12-10T04:47:43.988Z,90.10
2018-12-10T04:50:14.356Z,89.80
2018-12-10T04:52:43.641Z,89.90
2018-12-10T04:55:12.856Z,89.60
2018-12-10T04:57:41.915Z,89.30
2018-12-10T05:00:11.439Z,89.10
2018-12-10T05:02:40.626Z,88.70
2018-12-10T05:05:10.556Z,89.10
2018-12-10T05:07:39.722Z,88.90
2018-12-10T05:10:09.726Z,88.20
2018-12-10T05:12:38.898Z,88.90
2018-12-10T05:15:08.300Z,88.00
2018-12-10T05:17:37.588Z,88.00
2018-12-10T05:20:06.821Z,87.90
2018-12-10T05:22:36.333Z,87.80
2018-12-10T05:25:05.920Z,87.60
2018-12-10T05:27:36.648Z,88.10
2018-12-10T05:30:05.967Z,87.60
2018-12-10T05:32:35.771Z,87.90
2018-12-10T05:35:05.186Z,88.60
2018-12-10T05:37:34.282Z,87.40
2018-12-10T05:40:03.339Z,87.80
2018-12-10T05:42:32.637Z,86.30
2018-12-10T05:45:01.929Z,86.30
2018-12-10T05:47:31.657Z,87.40
2018-12-10T05:50:02.999Z,88.50
2018-12-10T05:52:40.699Z,89.20
2018-12-10T05:55:10.233Z,89.60
2018-12-10T05:57:39.782Z,89.50
2018-12-10T06:00:09.550Z,89.80
2018-12-10T06:02:38.842Z,90.10
2018-12-10T06:05:08.625Z,89.60
2018-12-10T06:07:37.898Z,89.90
2018-12-10T06:10:07.464Z,89.90
2018-12-10T06:12:37.238Z,89.30
2018-12-10T06:15:06.491Z,89.10
2018-12-10T06:17:36.402Z,89.20
2018-12-10T06:20:06.021Z,88.80
2018-12-10T06:22:35.223Z,89.10
2018-12-10T06:25:05.001Z,90.00
2018-12-10T06:27:34.149Z,90.00
2018-12-10T06:30:03.376Z,90.00
2018-12-10T06:32:32.441Z,90.00
2018-12-10T06:35:01.671Z,89.50
2018-12-10T06:37:37.578Z,89.30
2018-12-10T06:40:03.080Z,89.70
2018-12-10T06:42:32.252Z,88.90
2018-12-10T06:45:01.612Z,88.60
2018-12-10T06:47:30.769Z,88.60
2018-12-10T06:50:00.155Z,89.00
2018-12-10T06:52:29.553Z,89.50
2018-12-10T06:55:01.484Z,89.20
2018-12-10T06:57:30.707Z,89.70
2018-12-10T07:00:00.540Z,90.00
2018-12-10T07:02:29.815Z,90.00
2018-12-10T07:04:59.231Z,90.30
2018-12-10T07:07:28.383Z,90.20
2018-12-10T07:09:57.548Z,90.30
2018-12-10T07:12:27.033Z,90.30
2018-12-10T07:14:56.949Z,90.40
2018-12-10T07:17:26.258Z,90.70
2018-12-10T07:19:55.315Z,90.80
2018-12-10T07:22:25.062Z,90.70
2018-12-10T07:24:54.141Z,90.60
2018-12-10T07:27:23.355Z,90.30
2018-12-10T07:29:52.579Z,90.40
2018-12-10T07:32:21.811Z,90.30
2018-12-10T07:34:52.113Z,90.20
2018-12-10T07:37:21.248Z,90.00
2018-12-10T09:25:50.385Z,91.00
2018-12-10T09:28:19.847Z,91.50
2018-12-10T09:30:49.173Z,90.70
2018-12-10T09:33:18.942Z,91.10
2018-12-10T09:35:48.029Z,91.40
2018-12-10T09:38:17.080Z,91.40
2018-12-10T09:40:46.322Z,90.90
2018-12-10T09:43:16.015Z,90.80
2018-12-10T09:45:45.560Z,90.80
2018-12-10T09:48:15.264Z,90.30
2018-12-10T09:50:44.699Z,90.30
2018-12-10T09:53:14.054Z,90.30
2018-12-10T09:55:43.396Z,88.80
2018-12-10T09:58:12.979Z,89.10
2018-12-10T10:00:42.101Z,88.50
2018-12-10T10:03:11.443Z,89.30
2018-12-10T10:05:40.984Z,89.00
2018-12-10T10:08:10.556Z,87.20
2018-12-10T10:10:40.081Z,86.80
2018-12-10T10:13:09.285Z,86.90
2018-12-10T10:15:38.614Z,86.30
2018-12-10T10:18:07.768Z,87.50
2018-12-10T10:20:36.903Z,86.30
2018-12-10T10:23:06.746Z,84.90
2018-12-10T10:25:36.361Z,84.60
2018-12-10T10:28:05.597Z,84.50
2018-12-10T10:30:35.521Z,82.00
2018-12-10T10:33:04.666Z,83.40
2018-12-10T10:35:34.454Z,81.40
2018-12-10T10:38:04.234Z,81.50
2018-12-10T10:40:33.416Z,75.90
2018-12-10T10:43:02.516Z,74.10
2018-12-10T10:45:34.962Z,74.50
2018-12-10T10:48:03.355Z,74.10
2018-12-10T10:50:32.918Z,69.30
2018-12-10T10:53:02.188Z,68.10
2018-12-10T10:55:31.453Z,67.10
2018-12-10T10:58:00.760Z,62.10
2018-12-10T11:00:35.204Z,58.40
2018-12-10T11:03:08.041Z,56.90
2018-12-10T11:05:37.291Z,53.00
2018-12-10T11:08:06.435Z,51.80
2018-12-10T11:10:35.716Z,50.50
2018-12-10T11:13:05.411Z,49.70
2018-12-10T11:15:34.712Z,50.50
2018-12-10T11:18:03.919Z,52.40
2018-12-10T11:20:34.073Z,53.20
2018-12-10T11:23:03.401Z,55.80
2018-12-10T11:25:33.202Z,56.70
2018-12-10T11:28:02.913Z,57.90
2018-12-10T11:30:32.019Z,60.20
2018-12-10T11:33:02.229Z,60.70
2018-12-10T11:35:31.527Z,60.00
2018-12-10T11:38:00.982Z,62.10
2018-12-10T11:40:30.266Z,64.00
2018-12-10T11:42:59.577Z,66.70
2018-12-10T11:45:28.637Z,67.70
2018-12-10T11:47:58.414Z,69.10
2018-12-10T11:50:27.660Z,70.00
2018-12-10T11:52:57.348Z,70.60
2018-12-10T11:55:26.452Z,73.70
2018-12-10T11:57:55.721Z,73.40
2018-12-10T12:00:25.718Z,72.50
2018-12-10T12:02:55.873Z,70.20
2018-12-10T12:05:25.008Z,71.80
2018-12-10T12:07:54.357Z,69.60
2018-12-10T12:10:23.688Z,69.90
2018-12-10T12:12:52.866Z,73.30
2018-12-10T12:15:22.360Z,73.90
2018-12-10T12:17:51.564Z,77.30
2018-12-10T12:20:21.339Z,79.60
2018-12-10T12:22:50.661Z,78.70
2018-12-10T12:25:20.607Z,79.70
2018-12-10T12:27:49.838Z,80.30
2018-12-10T12:30:19.514Z,80.40
2018-12-10T12:32:48.609Z,80.10
2018-12-10T12:35:17.880Z,78.40
2018-12-10T12:37:48.321Z,75.20
2018-12-10T12:40:18.089Z,72.70
2018-12-10T12:42:47.165Z,73.20
2018-12-10T12:45:16.351Z,71.80
2018-12-10T12:47:45.643Z,73.70
2018-12-10T12:50:15.401Z,72.80
2018-12-10T12:52:45.335Z,73.30
2018-12-10T12:55:14.815Z,75.40
2018-12-10T12:57:44.109Z,77.60
2018-12-10T13:00:13.417Z,78.10
2018-12-10T13:02:42.914Z,81.30
2018-12-10T13:05:12.113Z,82.40
2018-12-10T13:07:41.414Z,85.10
2018-12-10T13:10:11.125Z,83.70
2018-12-10T13:12:40.634Z,86.00
2018-12-10T13:15:10.267Z,87.50
2018-12-10T13:17:39.648Z,86.70
2018-12-10T13:20:08.843Z,87.60
2018-12-10T13:22:38.238Z,88.00
2018-12-10T13:25:08.529Z,88.90
2018-12-10T13:27:37.597Z,88.80
2018-12-10T13:30:07.480Z,90.00
2018-12-10T13:32:37.189Z,90.80
2018-12-10T13:35:06.628Z,90.60
2018-12-10T13:37:35.963Z,90.60
2018-12-10T13:40:05.680Z,91.00
2018-12-10T13:42:35.201Z,90.20
2018-12-10T13:45:04.775Z,91.40
2018-12-10T13:47:34.215Z,91.50
2018-12-10T13:50:03.947Z,91.40
2018-12-10T13:52:33.425Z,90.70
2018-12-10T13:55:02.679Z,90.70
2018-12-10T13:57:32.198Z,90.90
2018-12-10T14:00:02.134Z,91.30
2018-12-10T14:02:31.753Z,91.40
2018-12-10T14:05:05.914Z,91.40
2018-12-10T14:07:35.115Z,90.50
2018-12-10T14:10:04.181Z,91.10
2018-12-10T14:12:34.802Z,92.10
2018-12-10T14:15:05.304Z,92.10
2018-12-10T14:17:34.827Z,92.40
2018-12-10T14:20:04.961Z,91.50
2018-12-10T14:22:35.034Z,92.30
2018-12-10T14:25:04.987Z,92.00
2018-12-10T14:27:35.533Z,92.70
2018-12-10T14:30:05.773Z,92.30
2018-12-10T14:32:35.679Z,91.10
2018-12-10T14:35:05.475Z,91.50
2018-12-10T14:37:35.079Z,92.60
2018-12-10T14:40:04.551Z,92.30
2018-12-10T14:42:36.115Z,92.60
2018-12-10T14:45:05.293Z,92.40
2018-12-10T14:47:35.369Z,92.40
2018-12-10T14:50:04.639Z,92.30
2018-12-10T14:52:34.161Z,92.90
2018-12-10T14:55:03.992Z,90.90
2018-12-10T14:57:33.389Z,90.40
2018-12-10T15:00:02.669Z,91.30
2018-12-10T15:02:32.718Z,88.70
2018-12-10T15:05:01.971Z,88.60
2018-12-10T15:07:31.392Z,88.70
2018-12-10T15:10:00.753Z,87.50
2018-12-10T15:12:30.824Z,88.00
2018-12-10T15:15:00.086Z,88.00
2018-12-10T15:17:29.822Z,88.20
2018-12-10T15:19:59.029Z,88.40
2018-12-10T15:22:28.168Z,88.30
2018-12-10T15:24:57.457Z,88.50
2018-12-10T15:27:26.931Z,89.20
2018-12-10T15:29:56.070Z,88.30
2018-12-10T15:32:25.300Z,89.60
2018-12-10T15:34:55.845Z,90.10
2018-12-10T15:37:25.218Z,90.20
2018-12-10T15:39:54.642Z,90.50
2018-12-10T15:42:24.474Z,90.30
2018-12-10T15:44:53.794Z,90.50
2018-12-10T15:47:23.143Z,90.50
2018-12-10T15:49:52.857Z,90.30
2018-12-10T15:52:22.434Z,90.10
2018-12-10T15:54:51.923Z,90.40
2018-12-10T15:57:21.278Z,90.40
2018-12-10T15:59:50.405Z,90.60
2018-12-10T16:02:19.588Z,90.50
2018-12-10T16:04:49.081Z,90.70
2018-12-10T16:07:18.692Z,90.80
2018-12-10T16:09:47.888Z,90.70
2018-12-10T16:12:17.398Z,90.90
2018-12-10T16:14:48.471Z,90.90
2018-12-10T16:17:17.905Z,90.70
2018-12-10T16:19:47.400Z,89.70
2018-12-10T16:22:16.836Z,88.50
2018-12-10T16:24:45.977Z,89.00
2018-12-10T16:27:16.393Z,90.20
2018-12-10T16:29:45.587Z,90.70
2018-12-10T16:32:14.944Z,90.60
2018-12-10T16:34:44.481Z,90.70
2018-12-10T16:37:13.834Z,90.60
2018-12-10T16:39:43.912Z,90.60
2018-12-10T16:42:13.229Z,91.00
2018-12-10T16:44:42.883Z,91.10
2018-12-10T16:47:12.426Z,91.40
2018-12-10T16:49:41.743Z,91.30
2018-12-10T16:52:11.490Z,91.70
2018-12-10T16:54:40.925Z,91.40
2018-12-10T16:57:10.529Z,91.40
2018-12-10T16:59:39.836Z,91.30
2018-12-10T17:02:09.250Z,91.20
2018-12-10T17:04:38.389Z,90.90
2018-12-10T17:07:07.729Z,90.80
2018-12-10T17:09:38.162Z,90.80
2018-12-10T17:12:07.745Z,91.10
2018-12-10T17:14:37.405Z,91.30
2018-12-10T17:17:06.772Z,91.60
2018-12-10T17:19:36.118Z,91.30
2018-12-10T17:22:05.856Z,91.30
2018-12-10T17:24:35.516Z,92.10
2018-12-10T17:27:05.036Z,91.70
2018-12-10T17:29:34.553Z,92.00
2018-12-10T17:32:04.141Z,92.00
2018-12-10T17:34:33.720Z,92.10
2018-12-10T17:37:03.132Z,91.20
2018-12-10T17:39:32.646Z,91.10
2018-12-10T17:42:02.314Z,91.20
2018-12-10T17:44:31.763Z,91.00
2018-12-10T17:47:01.109Z,91.00
2018-12-10T17:49:30.870Z,91.20
2018-12-10T17:52:00.313Z,91.00
2018-12-10T17:54:29.923Z,90.90
2018-12-10T17:56:59.068Z,91.20
2018-12-10T17:59:28.394Z,91.20
2018-12-10T18:01:58.188Z,90.80
2018-12-10T18:04:27.466Z,91.40
2018-12-10T18:06:57.549Z,91.20
2018-12-10T18:09:26.896Z,91.20
2018-12-10T18:11:56.885Z,91.50
2018-12-10T18:14:26.253Z,91.20
2018-12-10T18:16:56.118Z,91.40
2018-12-10T18:19:25.483Z,91.10
2018-12-10T18:21:54.737Z,90.40
2018-12-10T18:24:24.265Z,89.50
2018-12-10T18:26:53.441Z,89.90
2018-12-10T18:29:22.827Z,90.00
2018-12-10T18:31:52.311Z,89.30
2018-12-10T18:34:21.634Z,89.40
2018-12-10T18:39:29.573Z,89.30
2018-12-10T18:41:59.119Z,88.30
2018-12-10T18:44:28.735Z,88.60
2018-12-10T18:46:58.303Z,89.00
2018-12-10T18:49:27.916Z,89.70
2018-12-10T18:51:57.354Z,89.40
2018-12-10T18:54:26.962Z,88.80
2018-12-10T18:56:56.514Z,88.60
2018-12-10T18:59:25.972Z,88.60
2018-12-10T19:01:55.569Z,87.90
2018-12-10T19:04:25.100Z,87.90
2018-12-10T19:06:54.759Z,88.10
2018-12-10T19:09:24.282Z,87.70
2018-12-10T19:11:53.801Z,87.60
2018-12-10T19:14:23.160Z,87.80
2018-12-10T19:16:52.732Z,88.70
2018-12-10T19:19:21.980Z,88.30
2018-12-10T19:21:51.414Z,86.50
2018-12-10T19:24:20.965Z,85.50
2018-12-10T19:26:50.653Z,84.00
2018-12-10T19:29:20.023Z,83.70
2018-12-10T19:31:50.146Z,83.10
2018-12-10T19:34:19.762Z,82.60
2018-12-10T19:36:49.136Z,83.40
2018-12-10T19:39:18.734Z,82.80
2018-12-10T19:41:48.228Z,81.40
2018-12-10T19:44:17.358Z,82.70
2018-12-10T19:46:46.707Z,81.60
2018-12-10T19:49:17.012Z,82.90
2018-12-10T19:51:46.482Z,82.60
2018-12-10T19:54:15.910Z,83.20
2018-12-10T19:56:45.921Z,84.40
2018-12-10T19:59:15.233Z,85.40
2018-12-10T20:01:45.147Z,86.20
2018-12-10T20:04:14.633Z,86.50
2018-12-10T20:06:49.377Z,85.50
2018-12-10T20:09:19.069Z,84.70
2018-12-10T20:11:49.632Z,84.20
2018-12-10T20:14:19.142Z,83.20
2018-12-10T20:16:48.296Z,83.70
2018-12-10T20:19:17.952Z,83.00
2018-12-10T20:21:47.379Z,82.60
2018-12-10T20:24:16.525Z,83.40
2018-12-10T20:26:45.950Z,83.10
2018-12-10T20:29:15.493Z,82.10
2018-12-10T20:31:45.053Z,81.90
2018-12-10T20:34:14.620Z,81.30
2018-12-10T20:36:44.121Z,80.20
2018-12-10T20:39:13.626Z,81.40
2018-12-10T20:41:43.132Z,81.50
2018-12-10T20:44:12.654Z,80.80
2018-12-10T20:46:42.358Z,81.60
2018-12-10T20:49:11.721Z,80.30
2018-12-10T20:51:41.126Z,80.70
2018-12-10T20:54:11.004Z,81.20
2018-12-10T20:56:40.588Z,81.20
2018-12-10T20:59:09.889Z,81.10
2018-12-10T21:01:39.531Z,81.50
2018-12-10T21:04:09.070Z,81.60
2018-12-10T21:06:38.881Z,82.20
2018-12-10T21:09:09.518Z,82.10
2018-12-10T21:11:38.945Z,83.10
2018-12-10T21:14:09.323Z,83.50
2018-12-10T21:16:38.735Z,83.80
2018-12-10T21:19:08.034Z,84.40
2018-12-10T21:21:37.171Z,85.30
2018-12-10T21:24:06.404Z,84.70
2018-12-10T21:26:35.787Z,85.30
2018-12-10T21:29:05.606Z,85.90
2018-12-10T21:31:34.979Z,86.10
2018-12-10T21:34:04.362Z,86.90
2018-12-10T21:36:33.794Z,88.40
2018-12-10T21:39:04.744Z,87.80
2018-12-10T21:41:34.212Z,88.60
2018-12-10T21:44:03.945Z,89.20
2018-12-10T21:46:33.422Z,90.00
2018-12-10T21:49:02.963Z,90.00
2018-12-10T21:51:32.119Z,90.30
2018-12-10T21:54:01.298Z,90.20
2018-12-10T21:56:30.692Z,90.60
2018-12-10T21:59:00.002Z,91.50
2018-12-10T22:01:29.498Z,92.20
2018-12-10T22:03:59.174Z,91.90
2018-12-10T22:06:28.326Z,92.10
2018-12-10T22:08:57.435Z,92.30
2018-12-10T22:11:26.929Z,92.20
2018-12-10T22:13:56.315Z,92.60
2018-12-10T22:16:25.765Z,92.30
2018-12-10T22:18:55.552Z,92.00
2018-12-10T22:21:24.889Z,92.20
2018-12-10T22:23:54.556Z,92.40
2018-12-10T22:26:24.050Z,92.30
2018-12-10T22:28:53.246Z,92.20
2018-12-10T22:31:22.483Z,92.40
2018-12-10T22:33:51.790Z,92.90
2018-12-10T22:36:21.062Z,92.50
2018-12-10T22:38:50.940Z,92.60
2018-12-10T22:41:20.398Z,92.70
2018-12-10T22:43:49.973Z,92.30
2018-12-10T22:46:19.353Z,92.60
2018-12-10T22:48:48.674Z,92.50
2018-12-10T22:51:18.847Z,92.30
2018-12-10T22:53:48.214Z,92.40
2018-12-10T22:56:17.489Z,92.80
2018-12-10T22:58:46.792Z,92.70
2018-12-10T23:01:15.938Z,92.70
2018-12-10T23:03:45.045Z,92.80
2018-12-10T23:06:15.160Z,93.10
2018-12-10T23:08:44.513Z,92.90
2018-12-10T23:11:13.641Z,93.20
2018-12-10T23:13:43.146Z,93.40
2018-12-10T23:16:12.600Z,92.80
2018-12-10T23:18:42.541Z,93.20
2018-12-10T23:21:11.702Z,93.10
2018-12-10T23:23:40.962Z,93.10
2018-12-10T23:26:10.211Z,93.60
2018-12-10T23:28:39.787Z,93.50
2018-12-10T23:31:08.982Z,93.20
2018-12-10T23:33:38.827Z,93.20
2018-12-10T23:36:08.053Z,93.30
2018-12-10T23:38:37.894Z,94.00
2018-12-10T23:41:07.291Z,93.70
2018-12-10T23:43:36.391Z,94.30
2018-12-10T23:46:05.635Z,94.40
2018-12-10T23:48:34.808Z,94.30
2018-12-10T23:51:04.654Z,93.70
2018-12-10T23:53:34.170Z,94.00
2018-12-10T23:56:04.881Z,93.90
2018-12-10T23:58:34.143Z,94.00
